Time;durP1;ratioP1;P1;durP2;ratioP2;P2;SDS_P1;SDS_P2;PMS_P1;PMS_P2;Temp;Humidity;BMP_temperature;BMP_pressure;BME280_temperature;BME280_humidity;BME280_pressure;Samples;Min_cycle;Max_cycle;Signal;HPM_P1;HPM_P2
2022/02/12 00:02:00;;;;;;;16.25;10.10;;;;;;;3.92;60.24;101940.34;10313187;28;20049;-61
2022/02/12 00:07:01;;;;;;;14.43;10.40;;;;;;;4.07;59.73;101937.34;10317055;28;20078;-61
2022/02/12 00:12:03;;;;;;;21.88;11.20;;;;;;;4.03;59.78;101930.41;10314890;28;20048;-61
2022/02/12 00:17:05;;;;;;;22.02;12.77;;;;;;;4.09;59.78;101929.41;10315635;28;20060;-61
2022/02/12 00:22:06;;;;;;;17.55;11.93;;;;;;;4.08;59.70;101907.41;10316236;28;20053;-62
2022/02/12 00:27:08;;;;;;;24.17;12.30;;;;;;;4.09;60.23;101932.88;10321821;28;20054;-61
2022/02/12 00:32:10;;;;;;;18.63;13.15;;;;;;;4.09;59.91;101924.97;10322306;28;20136;-61
2022/02/12 00:37:12;;;;;;;21.83;12.55;;;;;;;4.10;59.98;101916.19;10317444;28;20038;-61
2022/02/12 00:42:14;;;;;;;19.15;13.57;;;;;;;4.13;60.16;101925.75;10315151;28;20038;-61
2022/02/12 00:47:15;;;;;;;17.98;13.50;;;;;;;4.02;60.25;101899.69;10316281;28;20049;-62
2022/02/12 00:52:17;;;;;;;17.70;13.88;;;;;;;3.86;61.14;101926.44;10319892;28;20056;-62
2022/02/12 00:57:18;;;;;;;21.25;15.55;;;;;;;3.63;62.04;101939.31;10318230;28;20060;-62
2022/02/12 01:02:19;;;;;;;19.60;16.27;;;;;;;3.57;62.15;101923.66;10316762;28;20053;-62
2022/02/12 01:07:21;;;;;;;21.83;15.45;;;;;;;3.46;62.51;101913.41;10325517;28;20062;-62
2022/02/12 01:12:22;;;;;;;17.98;12.32;;;;;;;3.36;62.84;101902.22;10322707;28;20041;-61
2022/02/12 01:17:25;;;;;;;15.45;10.23;;;;;;;3.39;62.51;101904.78;10316197;28;20137;-62
2022/02/12 01:22:27;;;;;;;14.05;9.00;;;;;;;3.26;62.78;101901.59;10314535;28;20057;-61
2022/02/12 01:27:28;;;;;;;15.80;9.27;;;;;;;3.03;63.69;101898.63;10314956;28;20579;-60
2022/02/12 01:32:30;;;;;;;16.50;9.48;;;;;;;2.85;64.77;101911.28;10311939;28;20057;-61
2022/02/12 01:37:31;;;;;;;14.93;9.10;;;;;;;2.80;64.67;101923.66;10310948;28;20547;-61
2022/02/12 01:42:33;;;;;;;15.20;9.02;;;;;;;2.76;64.83;101912.34;10315022;28;20084;-61
2022/02/12 01:47:34;;;;;;;14.32;8.85;;;;;;;2.81;64.98;101891.22;10311935;28;20050;-60
2022/02/12 01:52:37;;;;;;;14.52;8.48;;;;;;;2.87;65.04;101903.34;10312036;28;20050;-62
2022/02/12 01:57:38;;;;;;;15.02;8.93;;;;;;;2.69;65.17;101883.56;10312393;28;20056;-61
2022/02/12 02:02:40;;;;;;;16.33;9.30;;;;;;;2.66;65.55;101900.31;10320527;28;20443;-62
2022/02/12 02:07:43;;;;;;;15.18;8.75;;;;;;;2.67;65.73;101901.16;10308826;28;20123;-62
2022/02/12 02:12:44;;;;;;;15.65;8.30;;;;;;;2.58;65.53;101878.53;10308624;28;20054;-61
2022/02/12 02:17:46;;;;;;;16.13;8.15;;;;;;;2.58;66.41;101886.44;10311387;28;20057;-61
2022/02/12 02:22:52;;;;;;;14.95;7.65;;;;;;;2.53;66.48;101873.38;10310545;28;20042;-62
2022/02/12 02:27:54;;;;;;;13.73;7.43;;;;;;;2.59;66.47;101888.19;10315418;28;20100;-63
2022/02/12 02:32:55;;;;;;;12.30;7.32;;;;;;;2.54;66.27;101880.38;10312259;28;20535;-62
2022/02/12 02:38:04;;;;;;;14.25;8.63;;;;;;;2.60;66.26;101877.63;10319498;28;20050;-63
2022/02/12 02:43:06;;;;;;;15.02;9.55;;;;;;;2.48;66.65;101886.63;10324725;28;20054;-61
2022/02/12 02:48:10;;;;;;;15.90;9.38;;;;;;;2.74;66.15;101886.97;10311812;28;20708;-64
2022/02/12 02:58:32;;;;;;;12.48;8.10;;;;;;;2.45;67.31;101870.94;10306360;28;20060;-62
2022/02/12 03:03:34;;;;;;;15.82;9.57;;;;;;;2.49;67.08;101871.72;10313238;28;20056;-62
2022/02/12 03:08:36;;;;;;;14.55;9.75;;;;;;;2.39;67.11;101860.53;10309798;28;20048;-63
2022/02/12 03:13:42;;;;;;;12.55;8.52;;;;;;;2.37;67.20;101859.72;10310605;28;20082;-62
2022/02/12 03:18:46;;;;;;;15.95;8.48;;;;;;;2.08;67.99;101840.13;10314741;28;20060;-61
2022/02/12 03:23:47;;;;;;;11.20;7.53;;;;;;;2.09;68.43;101862.88;10310455;28;20124;-61
2022/02/12 03:28:49;;;;;;;17.60;9.75;;;;;;;2.02;68.86;101852.53;10314432;28;20141;-61
2022/02/12 03:33:50;;;;;;;11.20;7.85;;;;;;;1.89;68.73;101837.00;10311761;28;20519;-61
2022/02/12 03:38:51;;;;;;;14.23;9.20;;;;;;;2.03;68.73;101841.13;10312170;28;20056;-60
2022/02/12 03:43:53;;;;;;;14.27;8.55;;;;;;;1.98;68.67;101835.94;10309261;28;20472;-62
2022/02/12 03:48:54;;;;;;;15.43;8.18;;;;;;;2.05;68.49;101803.41;10311271;28;20501;-61
2022/02/12 03:53:56;;;;;;;13.70;8.48;;;;;;;1.99;68.74;101813.19;10311872;28;20038;-61
2022/02/12 03:58:57;;;;;;;13.27;8.30;;;;;;;1.84;69.25;101803.84;10309931;28;20042;-61
2022/02/12 04:03:58;;;;;;;13.18;8.05;;;;;;;1.91;68.89;101808.09;10309731;28;20515;-61
2022/02/12 04:09:00;;;;;;;16.20;8.63;;;;;;;1.90;68.84;101814.22;10311140;28;20050;-61
2022/02/12 04:14:02;;;;;;;14.63;8.90;;;;;;;1.93;69.47;101798.41;10309626;28;20054;-62
2022/02/12 04:19:04;;;;;;;13.32;8.10;;;;;;;1.85;69.69;101801.19;10311036;28;20046;-62
2022/02/12 04:24:06;;;;;;;13.52;8.05;;;;;;;1.71;69.80;101783.09;10308248;28;20125;-61
2022/02/12 04:29:07;;;;;;;13.32;8.57;;;;;;;1.83;69.78;101796.84;10312578;28;20054;-61
2022/02/12 04:34:09;;;;;;;10.77;7.88;;;;;;;1.91;69.56;101811.56;10307740;28;20130;-61
2022/02/12 04:39:10;;;;;;;11.57;8.90;;;;;;;2.03;69.74;101807.84;10308081;28;20049;-61
2022/02/12 04:44:11;;;;;;;15.85;8.93;;;;;;;2.20;68.82;101789.09;10312067;28;20051;-61
2022/02/12 04:49:13;;;;;;;12.68;9.15;;;;;;;2.09;69.50;101799.84;10312671;28;20796;-61
2022/02/12 04:54:14;;;;;;;15.75;8.88;;;;;;;2.00;69.79;101789.50;10319893;28;20270;-61
2022/02/12 04:59:17;;;;;;;13.27;9.13;;;;;;;2.03;69.57;101784.19;10314624;28;20054;-62
2022/02/12 05:04:19;;;;;;;17.73;8.93;;;;;;;1.87;69.87;101777.53;10315903;28;20679;-62
2022/02/12 05:09:20;;;;;;;11.07;8.70;;;;;;;1.85;70.40;101789.84;10316573;28;20058;-61
2022/02/12 05:14:22;;;;;;;14.55;8.60;;;;;;;1.86;70.63;101783.66;10316693;28;20042;-61
2022/02/12 05:19:23;;;;;;;14.20;9.32;;;;;;;1.81;70.86;101782.91;10316655;28;20058;-62
2022/02/12 05:24:25;;;;;;;14.98;8.75;;;;;;;1.84;70.79;101781.06;10317914;28;20800;-62
2022/02/12 05:29:27;;;;;;;15.10;8.57;;;;;;;1.77;70.73;101780.34;10316449;28;20084;-63
2022/02/12 05:34:28;;;;;;;13.18;8.48;;;;;;;1.64;70.82;101754.34;10314658;28;20060;-62
2022/02/12 05:39:29;;;;;;;11.07;8.45;;;;;;;1.56;70.79;101757.09;10317402;28;20050;-62
2022/02/12 05:44:31;;;;;;;14.63;8.00;;;;;;;1.64;71.01;101777.97;10316806;28;20050;-61
2022/02/12 05:49:32;;;;;;;14.73;9.30;;;;;;;1.53;71.37;101763.28;10317896;28;20083;-62
2022/02/12 05:54:35;;;;;;;13.32;8.10;;;;;;;1.63;70.89;101779.72;10316644;28;20050;-62
2022/02/12 05:59:36;;;;;;;13.18;7.53;;;;;;;1.56;71.03;101757.97;10314782;28;20599;-62
2022/02/12 06:04:38;;;;;;;12.30;7.90;;;;;;;1.64;70.93;101755.22;10317573;28;20052;-63
2022/02/12 06:09:39;;;;;;;12.20;8.25;;;;;;;1.72;70.49;101763.78;10324495;28;20218;-63
2022/02/12 06:14:41;;;;;;;12.32;8.38;;;;;;;1.65;70.72;101754.31;10347510;28;20060;-61
2022/02/12 06:19:42;;;;;;;14.27;9.50;;;;;;;1.55;70.86;101755.41;10315940;28;20141;-63
2022/02/12 06:24:43;;;;;;;15.13;8.95;;;;;;;1.62;70.89;101745.63;10316041;28;20061;-63
2022/02/12 06:29:45;;;;;;;13.75;8.63;;;;;;;1.48;71.59;101733.63;10316654;28;20415;-63
2022/02/12 06:34:46;;;;;;;11.63;7.97;;;;;;;1.48;71.54;101749.38;10311931;28;20186;-62
2022/02/12 06:39:48;;;;;;;10.73;8.00;;;;;;;1.40;71.90;101722.44;10310981;28;20069;-63
2022/02/12 06:44:49;;;;;;;12.68;7.80;;;;;;;1.41;71.58;101727.66;10311251;28;20117;-63
2022/02/12 06:49:51;;;;;;;14.02;8.02;;;;;;;1.54;71.57;101733.50;10300309;28;20056;-60
2022/02/12 06:54:54;;;;;;;13.30;8.38;;;;;;;1.60;71.19;101722.03;10311903;28;20053;-62
2022/02/12 06:59:55;;;;;;;10.90;6.85;;;;;;;1.59;71.13;101720.28;10311216;28;20559;-61
2022/02/12 07:04:58;;;;;;;13.10;8.07;;;;;;;1.55;70.98;101703.75;10313753;28;20137;-61
2022/02/12 07:09:59;;;;;;;17.85;8.50;;;;;;;1.49;71.07;101703.03;10305846;28;20831;-61
2022/02/12 07:15:00;;;;;;;15.10;7.82;;;;;;;1.59;71.70;101715.03;10304243;28;20054;-61
2022/02/12 07:20:02;;;;;;;14.10;8.25;;;;;;;1.72;71.28;101723.56;10311245;28;20050;-63
2022/02/12 07:25:04;;;;;;;11.85;7.22;;;;;;;1.77;71.03;101714.69;10303392;28;20046;-63
2022/02/12 07:30:11;;;;;;;13.18;8.65;;;;;;;1.94;70.56;101716.97;10301230;28;20252;-63
2022/02/12 07:35:14;;;;;;;10.95;7.53;;;;;;;2.06;69.93;101723.72;10311841;28;20056;-61
2022/02/12 07:40:17;;;;;;;12.60;7.25;;;;;;;2.08;70.07;101724.53;10301208;28;20084;-62
2022/02/12 07:45:19;;;;;;;9.73;6.97;;;;;;;2.20;69.81;101731.28;10335999;28;20056;-63
2022/02/12 07:50:20;;;;;;;16.90;9.25;;;;;;;2.35;69.35;101719.56;10335208;28;21580;-62
2022/02/12 07:55:22;;;;;;;11.52;9.65;;;;;;;2.56;68.85;101726.09;10341928;28;20043;-62
2022/02/12 08:00:24;;;;;;;10.40;6.38;;;;;;;2.66;68.29;101705.72;10339478;28;20056;-62
2022/02/12 08:05:25;;;;;;;9.05;5.25;;;;;;;2.87;67.73;101709.59;10338680;28;20060;-62
2022/02/12 08:15:47;;;;;;;8.50;5.93;;;;;;;3.41;66.62;101723.97;10337316;28;20522;-60
2022/02/12 08:20:48;;;;;;;9.32;4.95;;;;;;;3.54;65.58;101720.09;10332809;28;20054;-61
2022/02/12 08:25:50;;;;;;;8.00;5.28;;;;;;;3.56;65.32;101708.66;10338009;28;20037;-62
2022/02/12 08:30:51;;;;;;;10.02;5.10;;;;;;;3.71;65.03;101713.50;10344212;28;20053;-61
2022/02/12 08:35:52;;;;;;;8.80;6.90;;;;;;;3.75;65.00;101709.84;10352407;28;20046;-60
2022/02/12 08:40:55;;;;;;;8.27;5.13;;;;;;;3.66;64.77;101695.19;10342988;28;20049;-61
2022/02/12 08:45:57;;;;;;;9.35;5.43;;;;;;;3.76;64.96;101710.75;10347364;28;20045;-60
2022/02/12 08:50:58;;;;;;;9.57;4.05;;;;;;;3.72;65.29;101712.56;10342555;28;20629;-61
2022/02/12 08:56:00;;;;;;;7.97;4.03;;;;;;;3.62;64.49;101709.34;10344231;28;20063;-61
2022/02/12 09:01:02;;;;;;;7.50;4.32;;;;;;;3.84;64.29;101709.63;10343054;28;20053;-61
2022/02/12 09:06:03;;;;;;;9.98;3.78;;;;;;;4.04;64.13;101708.16;10343403;28;20127;-61
2022/02/12 09:11:05;;;;;;;6.35;4.10;;;;;;;4.31;62.43;101701.19;10343814;28;20968;-60
2022/02/12 09:16:06;;;;;;;9.43;4.30;;;;;;;4.68;61.29;101696.50;10344345;28;20867;-61
2022/02/12 09:21:07;;;;;;;9.93;4.20;;;;;;;5.13;60.04;101701.13;10339048;28;20060;-61
2022/02/12 09:26:09;;;;;;;9.35;4.65;;;;;;;5.52;59.13;101695.34;10337526;28;20060;-62
2022/02/12 09:31:10;;;;;;;6.70;3.92;;;;;;;5.89;57.48;101672.00;10342805;28;20054;-65
2022/02/12 09:36:11;;;;;;;8.07;3.63;;;;;;;6.53;55.37;101681.81;10341102;28;20054;-61
2022/02/12 09:41:14;;;;;;;8.65;4.28;;;;;;;6.99;54.12;101666.66;10341112;28;20052;-60
2022/02/12 09:46:31;;;;;;;8.00;4.15;;;;;;;7.50;53.02;101668.91;10330623;28;20052;-60
2022/02/12 09:51:32;;;;;;;6.93;3.78;;;;;;;7.68;52.17;101659.25;10333335;28;20691;-60
2022/02/12 09:56:35;;;;;;;12.55;4.88;;;;;;;8.04;51.08;101642.56;10336228;28;20054;-60
2022/02/12 10:01:39;;;;;;;7.15;4.20;;;;;;;8.76;49.42;101664.72;10339663;28;20060;-60
2022/02/12 10:06:43;;;;;;;7.75;4.50;;;;;;;9.58;46.79;101657.81;10339944;28;20073;-62
2022/02/12 10:11:49;;;;;;;9.45;4.20;;;;;;;12.05;42.32;101654.03;10338007;28;20060;-62
2022/02/12 10:16:57;;;;;;;6.15;5.07;;;;;;;13.42;38.88;101648.41;10335150;28;20523;-62
2022/02/12 10:22:02;;;;;;;8.30;5.18;;;;;;;14.28;36.33;101643.16;10329763;28;20298;-62
2022/02/12 10:27:03;;;;;;;7.55;4.10;;;;;;;13.20;38.11;101621.41;10338395;28;20129;-62
2022/02/12 10:32:05;;;;;;;7.03;4.68;;;;;;;13.59;38.11;101622.28;10333722;28;20049;-62
2022/02/12 10:37:07;;;;;;;8.00;4.15;;;;;;;14.00;37.66;101610.38;10335632;28;20202;-59
2022/02/12 10:42:09;;;;;;;5.85;3.97;;;;;;;14.41;36.51;101613.63;10332040;28;20461;-60
2022/02/12 10:47:15;;;;;;;7.07;3.03;;;;;;;15.72;33.70;101617.75;10337286;28;20150;-60
2022/02/12 10:52:19;;;;;;;7.30;3.60;;;;;;;18.45;29.53;101606.91;10328930;28;20140;-61
2022/02/12 10:57:28;;;;;;;4.85;2.58;;;;;;;20.09;26.93;101608.38;10335168;28;20049;-61
2022/02/12 11:02:30;;;;;;;6.07;3.95;;;;;;;21.69;24.77;101582.09;10310620;28;20533;-60
2022/02/12 11:07:33;;;;;;;4.33;2.77;;;;;;;21.50;24.33;101592.19;10301414;28;20922;-60
2022/02/12 11:12:36;;;;;;;6.03;3.10;;;;;;;22.54;22.83;101557.50;10300922;28;20141;-60
2022/02/12 11:17:39;;;;;;;3.30;2.30;;;;;;;23.56;22.28;101550.63;10311774;28;20057;-60
2022/02/12 11:22:41;;;;;;;5.43;2.60;;;;;;;23.64;21.22;101546.00;10307029;28;20265;-61
2022/02/12 11:28:02;;;;;;;;;;;;;;;24.21;20.72;101538.47;10313058;28;20091;-61
2022/02/12 11:33:29;;;;;;;4.80;2.40;;;;;;;23.70;20.83;101524.53;10304974;28;19952;-61
2022/02/12 11:38:35;;;;;;;5.05;2.65;;;;;;;23.76;21.42;101512.94;10304247;28;20900;-61
2022/02/12 11:43:38;;;;;;;3.88;2.30;;;;;;;24.74;20.67;101505.03;10302912;28;20058;-61
2022/02/12 11:49:25;;;;;;;6.07;2.40;;;;;;;24.84;20.13;101481.91;10306842;28;20080;-61
2022/02/12 11:54:56;;;;;;;3.63;1.73;;;;;;;26.16;18.76;101471.06;10290347;28;20050;-61
2022/02/12 12:00:00;;;;;;;6.03;2.72;;;;;;;26.85;17.44;101458.53;10300993;28;20125;-61
2022/02/12 12:05:19;;;;;;;3.50;2.05;;;;;;;26.98;17.34;101444.94;10312014;28;20046;-61
2022/02/12 12:10:20;;;;;;;4.40;2.25;;;;;;;27.31;16.93;101425.91;10318113;28;20050;-62
2022/02/12 12:15:26;;;;;;;4.68;2.30;;;;;;;26.92;16.79;101421.19;10340744;28;20059;-61
2022/02/12 12:20:37;;;;;;;4.90;2.63;;;;;;;27.14;16.61;101411.78;10342348;28;20057;-61
2022/02/12 12:26:01;;;;;;;3.38;1.63;;;;;;;26.38;16.87;101409.94;10338861;28;20531;-62
2022/02/12 12:31:05;;;;;;;3.15;1.92;;;;;;;26.90;17.13;101402.25;10334371;28;20063;-61
2022/02/12 12:36:14;;;;;;;4.63;2.15;;;;;;;26.04;17.41;101389.75;10312306;28;20049;-62
2022/02/12 12:41:23;;;;;;;4.60;2.08;;;;;;;25.27;17.40;101391.31;10308693;28;20974;-61
2022/02/12 12:46:24;;;;;;;2.92;1.58;;;;;;;24.85;17.38;101376.59;10307174;28;20046;-61
2022/02/12 12:51:26;;;;;;;5.35;2.30;;;;;;;25.40;17.55;101361.50;10309043;28;20060;-61
2022/02/12 12:56:28;;;;;;;5.90;1.55;;;;;;;25.87;16.67;101333.81;10308422;28;20058;-61
2022/02/12 13:01:29;;;;;;;4.65;1.73;;;;;;;25.53;17.23;101324.50;10310636;28;20050;-62
2022/02/12 13:06:31;;;;;;;1.50;1.13;;;;;;;24.92;17.17;101317.59;10310062;28;20550;-62
2022/02/12 13:11:33;;;;;;;2.83;1.70;;;;;;;23.27;19.20;101316.63;10302438;28;20058;-62
2022/02/12 13:16:41;;;;;;;2.50;1.45;;;;;;;21.02;20.96;101288.59;10303825;28;20093;-62
2022/02/12 13:21:47;;;;;;;3.65;1.70;;;;;;;20.23;21.86;101297.97;10311098;28;20044;-62
2022/02/12 13:26:49;;;;;;;2.90;1.42;;;;;;;21.37;20.24;101288.44;10303369;28;20050;-60
2022/02/12 13:31:54;;;;;;;2.23;1.50;;;;;;;22.09;19.47;101271.44;10303953;28;20050;-63
2022/02/12 13:36:57;;;;;;;4.90;1.65;;;;;;;21.53;20.20;101277.66;10305776;28;20050;-63
2022/02/12 13:41:59;;;;;;;3.22;2.00;;;;;;;21.33;20.73;101265.44;10318950;28;20482;-61
2022/02/12 13:47:07;;;;;;;2.40;1.58;;;;;;;19.59;22.66;101249.59;10307910;28;20079;-61
2022/02/12 13:52:09;;;;;;;3.90;1.95;;;;;;;18.82;23.46;101251.97;10316570;28;20140;-60
2022/02/12 13:57:10;;;;;;;4.20;2.38;;;;;;;17.64;24.63;101236.34;10296614;28;20739;-61
2022/02/12 14:02:11;;;;;;;4.10;2.92;;;;;;;16.52;26.97;101228.72;10306755;28;20116;-61
2022/02/12 14:07:13;;;;;;;2.97;1.90;;;;;;;16.55;27.04;101227.59;10306721;28;20054;-60
2022/02/12 14:12:17;;;;;;;2.20;1.60;;;;;;;18.73;24.44;101222.22;10307428;28;20646;-61
2022/02/12 14:17:19;;;;;;;3.67;2.35;;;;;;;19.22;23.48;101215.59;10310315;28;20180;-61
2022/02/12 14:22:20;;;;;;;2.47;1.98;;;;;;;18.20;24.68;101201.41;10306701;28;20053;-61
2022/02/12 14:27:22;;;;;;;3.42;2.58;;;;;;;17.66;25.29;101202.03;10316516;28;20053;-61
2022/02/12 14:32:24;;;;;;;5.72;2.30;;;;;;;17.02;26.43;101192.81;10308683;28;20425;-60
2022/02/12 14:37:25;;;;;;;4.05;2.83;;;;;;;16.99;26.39;101187.72;10305181;28;20058;-60
2022/02/12 14:42:27;;;;;;;4.65;2.50;;;;;;;15.98;27.80;101184.31;10290539;28;20049;-60
2022/02/12 14:47:28;;;;;;;4.18;2.58;;;;;;;16.06;27.89;101163.00;10310904;28;20485;-60
2022/02/12 14:52:30;;;;;;;3.17;2.28;;;;;;;16.84;28.45;101162.22;10298131;28;20103;-62
2022/02/12 14:57:33;;;;;;;4.75;2.40;;;;;;;16.38;28.32;101165.47;10300372;28;20050;-60
2022/02/12 15:02:35;;;;;;;4.97;2.45;;;;;;;15.73;29.59;101162.28;10305853;28;20063;-60
2022/02/12 15:07:39;;;;;;;5.45;3.33;;;;;;;15.09;30.37;101148.13;10309226;28;20054;-60
2022/02/12 15:12:40;;;;;;;5.10;2.90;;;;;;;14.58;31.53;101147.00;10304102;28;20682;-60
2022/02/12 15:17:41;;;;;;;5.07;3.25;;;;;;;12.69;34.48;101120.84;10309303;28;20289;-60
2022/02/12 15:22:43;;;;;;;4.57;3.28;;;;;;;12.14;35.45;101140.97;10309695;28;20060;-58
2022/02/12 15:27:44;;;;;;;5.50;3.55;;;;;;;11.54;37.01;101138.06;10301322;28;20050;-60
2022/02/12 15:32:46;;;;;;;5.05;3.00;;;;;;;10.93;38.18;101137.88;10304635;28;20132;-60
2022/02/12 15:37:48;;;;;;;3.92;3.45;;;;;;;10.32;39.79;101134.78;10305357;28;20057;-59
2022/02/12 15:42:49;;;;;;;6.38;3.60;;;;;;;10.15;40.24;101131.41;10314902;28;21834;-61
2022/02/12 15:47:50;;;;;;;4.25;2.90;;;;;;;9.78;41.42;101116.97;10308987;28;20058;-61
2022/02/12 15:52:54;;;;;;;6.20;3.55;;;;;;;9.54;42.02;101117.53;10299129;28;20068;-60
2022/02/12 15:57:55;;;;;;;5.57;3.13;;;;;;;9.36;41.75;101082.34;10306615;28;20053;-61
2022/02/12 16:02:57;;;;;;;3.47;3.03;;;;;;;9.22;42.54;101103.56;10304880;28;20054;-60
2022/02/12 16:07:58;;;;;;;4.43;3.08;;;;;;;8.89;43.65;101080.78;10303510;28;20049;-61
2022/02/12 16:13:03;;;;;;;5.82;3.83;;;;;;;8.69;44.46;101077.50;10303315;28;20902;-61
2022/02/12 16:18:04;;;;;;;6.22;3.80;;;;;;;8.53;44.93;101066.97;10291884;28;20840;-60
2022/02/12 16:23:07;;;;;;;5.03;3.85;;;;;;;8.53;45.35;101085.56;10296317;28;20054;-60
2022/02/12 16:28:08;;;;;;;4.78;3.92;;;;;;;8.32;45.91;101066.41;10301540;28;20052;-60
2022/02/12 16:33:09;;;;;;;4.78;4.32;;;;;;;8.14;46.26;101079.78;10290177;28;20057;-62
2022/02/12 16:38:12;;;;;;;5.75;4.88;;;;;;;8.09;47.22;101084.50;10305035;28;20047;-61
2022/02/12 16:43:13;;;;;;;6.65;4.82;;;;;;;8.02;47.27;101069.88;10303670;28;20118;-60
2022/02/12 16:48:15;;;;;;;6.75;4.75;;;;;;;7.84;48.49;101089.47;10309650;28;20473;-61
2022/02/12 16:53:17;;;;;;;6.15;4.45;;;;;;;7.71;48.95;101079.53;10358894;28;20064;-60
2022/02/12 16:58:19;;;;;;;5.60;4.88;;;;;;;7.65;49.03;101076.38;10373016;28;20042;-59
2022/02/12 17:03:22;;;;;;;6.88;4.93;;;;;;;7.55;49.73;101082.19;10370442;28;20060;-61
2022/02/12 17:08:24;;;;;;;6.22;4.25;;;;;;;7.46;50.01;101081.81;10374833;28;20049;-60
2022/02/12 17:13:25;;;;;;;6.82;4.93;;;;;;;7.23;50.56;101060.06;10353729;28;20134;-61
2022/02/12 17:18:27;;;;;;;6.43;5.47;;;;;;;7.31;50.58;101073.78;10350058;28;20667;-60
2022/02/12 17:23:29;;;;;;;5.82;4.93;;;;;;;7.28;50.79;101071.28;10355280;28;21737;-61
2022/02/12 17:28:30;;;;;;;7.25;5.35;;;;;;;7.16;51.38;101061.31;10344596;28;20152;-60
2022/02/12 17:33:33;;;;;;;6.75;4.95;;;;;;;7.16;51.07;101074.56;10346820;28;20893;-59
2022/02/12 17:38:35;;;;;;;5.63;5.13;;;;;;;7.08;51.93;101070.53;10333458;28;21606;-62
2022/02/12 17:43:37;;;;;;;7.90;5.18;;;;;;;7.09;52.34;101068.75;10316384;28;20065;-60
2022/02/12 17:48:39;;;;;;;5.78;4.95;;;;;;;6.94;52.45;101033.38;10306056;28;20053;-61
2022/02/12 17:53:40;;;;;;;6.57;5.47;;;;;;;7.00;52.15;101043.63;10309423;28;20061;-63
2022/02/12 17:58:42;;;;;;;7.63;5.28;;;;;;;6.73;52.80;101028.25;10305031;28;20580;-60
2022/02/12 18:03:43;;;;;;;8.85;6.57;;;;;;;6.77;53.56;101036.03;10312359;28;20057;-59
2022/02/12 18:14:05;;;;;;;7.93;5.03;;;;;;;6.64;53.25;101031.38;10310702;28;20057;-60
2022/02/12 18:19:06;;;;;;;6.32;4.63;;;;;;;6.54;53.62;101023.06;10304186;28;20042;-60
2022/02/12 18:24:11;;;;;;;7.38;5.80;;;;;;;6.65;53.97;101013.69;10307101;28;20057;-60
2022/02/12 18:29:13;;;;;;;7.30;5.97;;;;;;;6.62;53.72;101009.44;10313468;28;21303;-60
2022/02/12 18:34:15;;;;;;;7.82;6.18;;;;;;;6.49;53.84;101005.72;10305350;28;20046;-59
2022/02/12 18:39:17;;;;;;;7.30;5.78;;;;;;;6.50;54.34;101010.06;10305715;28;20056;-60
2022/02/12 18:44:38;;;;;;;8.38;5.50;;;;;;;6.43;54.12;101006.03;10314163;28;20057;-62
2022/02/12 18:49:40;;;;;;;9.40;6.45;;;;;;;6.37;54.53;101009.84;10308030;28;20061;-62
2022/02/12 18:54:43;;;;;;;7.20;5.78;;;;;;;6.24;55.18;100991.09;10302689;28;20129;-61
2022/02/12 18:59:46;;;;;;;8.45;6.45;;;;;;;6.26;55.07;100994.53;10307311;28;20116;-62
2022/02/12 19:04:50;;;;;;;8.75;5.97;;;;;;;6.13;55.34;100967.84;10303434;28;20053;-61
2022/02/12 19:09:52;;;;;;;7.20;6.50;;;;;;;5.89;55.68;100940.84;10299830;28;20058;-61
2022/02/12 19:14:53;;;;;;;7.70;6.63;;;;;;;5.99;55.96;100965.91;10304148;28;20050;-60
2022/02/12 19:19:57;;;;;;;9.35;7.28;;;;;;;5.96;56.47;100971.31;10309603;28;20054;-59
2022/02/12 19:24:59;;;;;;;12.97;9.93;;;;;;;5.97;56.57;100967.75;10301636;28;20057;-61
2022/02/12 19:30:02;;;;;;;13.43;9.90;;;;;;;5.83;57.64;100954.34;10301488;28;20045;-61
2022/02/12 19:35:04;;;;;;;12.80;10.00;;;;;;;6.01;57.09;100956.09;10310144;28;20061;-59
2022/02/12 19:40:06;;;;;;;13.02;10.20;;;;;;;5.97;57.29;100943.97;10302793;28;20053;-62
2022/02/12 19:45:08;;;;;;;12.55;10.02;;;;;;;5.74;57.60;100942.44;10305479;28;20068;-61
2022/02/12 19:50:10;;;;;;;11.27;9.57;;;;;;;5.65;58.54;100940.25;10291760;28;20057;-61
2022/02/12 19:55:12;;;;;;;12.13;10.25;;;;;;;5.63;58.42;100931.53;10298860;28;20042;-61
2022/02/12 20:00:18;;;;;;;16.15;11.48;;;;;;;5.55;58.13;100929.28;10306159;28;20046;-61
2022/02/12 20:05:20;;;;;;;14.52;12.27;;;;;;;5.61;58.28;100934.25;10307181;28;20046;-61
2022/02/12 20:10:21;;;;;;;16.23;14.52;;;;;;;5.52;58.65;100920.66;10308449;28;20057;-60
2022/02/12 20:15:23;;;;;;;15.57;12.50;;;;;;;5.50;58.68;100928.66;10300592;28;20049;-60
2022/02/12 20:20:24;;;;;;;12.93;11.05;;;;;;;5.39;58.57;100917.75;10304714;28;20084;-61
2022/02/12 20:25:26;;;;;;;13.45;9.88;;;;;;;5.35;58.30;100924.97;10313192;28;20053;-62
2022/02/12 20:30:27;;;;;;;11.65;10.45;;;;;;;5.25;58.59;100927.19;10310744;28;20119;-62
2022/02/12 20:35:31;;;;;;;14.98;12.70;;;;;;;5.14;59.13;100908.38;10307002;28;20512;-61
2022/02/12 20:40:33;;;;;;;14.90;12.60;;;;;;;5.12;59.19;100915.50;10313057;28;20069;-60
2022/02/12 20:45:34;;;;;;;13.95;11.40;;;;;;;5.10;58.77;100865.44;10307749;28;20077;-60
2022/02/12 20:50:36;;;;;;;15.82;13.23;;;;;;;5.19;59.04;100890.53;10317939;28;20517;-60
2022/02/12 20:55:39;;;;;;;14.85;13.45;;;;;;;5.19;59.30;100885.25;10318930;28;20054;-60
2022/02/12 21:00:41;;;;;;;19.00;16.95;;;;;;;5.23;59.29;100892.09;10310736;28;20044;-59
2022/02/12 21:05:43;;;;;;;27.05;19.45;;;;;;;5.05;59.76;100887.69;10310546;28;20054;-60
2022/02/12 21:10:44;;;;;;;24.08;19.45;;;;;;;5.03;60.19;100889.53;10315530;28;20132;-63
2022/02/12 21:15:46;;;;;;;25.30;20.52;;;;;;;4.98;60.28;100889.75;10321632;28;20100;-61
2022/02/12 21:20:50;;;;;;;16.92;15.15;;;;;;;5.05;60.36;100871.88;10323122;28;20141;-60
2022/02/12 21:25:52;;;;;;;17.50;15.70;;;;;;;4.91;60.13;100864.63;10313218;28;20437;-61
2022/02/12 21:30:53;;;;;;;16.85;14.85;;;;;;;4.63;60.03;100820.19;10316629;28;20179;-62
2022/02/12 21:35:56;;;;;;;21.95;16.15;;;;;;;4.77;60.37;100859.97;10316981;28;20084;-62
2022/02/12 21:40:59;;;;;;;12.43;11.13;;;;;;;4.62;60.23;100863.31;10310023;28;20054;-61
2022/02/12 21:46:03;;;;;;;11.33;9.10;;;;;;;4.60;60.35;100861.59;10313750;28;20120;-61
2022/02/12 21:51:05;;;;;;;11.45;9.38;;;;;;;4.47;59.66;100852.53;10312444;28;20053;-62
2022/02/12 21:56:08;;;;;;;12.10;9.02;;;;;;;4.62;59.80;100863.31;10310276;28;20054;-62
2022/02/12 22:01:11;;;;;;;11.55;9.50;;;;;;;4.75;59.47;100867.09;10309247;28;20606;-61
2022/02/12 22:06:12;;;;;;;12.60;10.00;;;;;;;4.73;59.07;100840.78;10302419;28;20520;-62
2022/02/12 22:11:13;;;;;;;11.93;9.60;;;;;;;4.68;59.46;100841.94;10305780;28;20056;-61
2022/02/12 22:16:15;;;;;;;13.10;10.10;;;;;;;4.43;59.87;100821.97;10308307;28;20652;-61
2022/02/12 22:21:16;;;;;;;11.50;10.30;;;;;;;4.41;60.00;100831.72;10307107;28;20058;-61
2022/02/12 22:26:18;;;;;;;11.18;9.48;;;;;;;4.21;60.02;100824.72;10303868;28;20137;-61
2022/02/12 22:31:19;;;;;;;11.63;9.43;;;;;;;4.38;60.30;100839.78;10302741;28;20602;-62
2022/02/12 22:36:21;;;;;;;14.82;10.77;;;;;;;4.29;59.86;100819.09;10294703;28;20042;-61
2022/02/12 22:41:23;;;;;;;10.20;9.13;;;;;;;4.11;60.18;100805.81;10310221;28;20060;-60
2022/02/12 22:46:24;;;;;;;9.40;8.45;;;;;;;4.19;60.49;100819.53;10310716;28;20160;-61
2022/02/12 22:51:26;;;;;;;10.65;9.35;;;;;;;4.28;59.88;100822.66;10310075;28;20050;-62
2022/02/12 22:56:29;;;;;;;12.18;9.77;;;;;;;4.46;59.83;100827.13;10303964;28;20050;-62
2022/02/12 23:01:30;;;;;;;13.10;10.73;;;;;;;4.46;59.27;100811.28;10299716;28;20058;-61
2022/02/12 23:06:31;;;;;;;10.80;9.70;;;;;;;4.28;59.52;100806.84;10334690;28;20057;-61
2022/02/12 23:11:36;;;;;;;9.98;8.65;;;;;;;4.07;59.90;100817.44;10337012;28;20052;-60
2022/02/12 23:16:40;;;;;;;10.02;8.68;;;;;;;3.91;60.15;100785.66;10339608;28;20485;-63
2022/02/12 23:21:42;;;;;;;11.30;9.17;;;;;;;3.87;60.50;100782.31;10349882;28;20128;-62
2022/02/12 23:26:43;;;;;;;12.98;10.02;;;;;;;4.18;60.55;100802.00;10350341;28;20049;-62